sensor_id;sensor_type;location;lat;lon;timestamp;P1;durP1;ratioP1;P2;durP2;ratioP2
13872;SDS011;7006;51.494;11.964;2022-09-27T00:01:03;2.70;;;2.10;;
13872;SDS011;7006;51.494;11.964;2022-09-27T00:03:30;3.00;;;1.83;;
13872;SDS011;7006;51.494;11.964;2022-09-27T00:06:00;3.30;;;2.03;;
13872;SDS011;7006;51.494;11.964;2022-09-27T00:08:29;3.77;;;2.33;;
13872;SDS011;7006;51.494;11.964;2022-09-27T00:10:57;2.07;;;1.70;;
13872;SDS011;7006;51.494;11.964;2022-09-27T00:13:23;4.47;;;2.40;;
13872;SDS011;7006;51.494;11.964;2022-09-27T00:15:55;4.13;;;2.40;;
13872;SDS011;7006;51.494;11.964;2022-09-27T00:18:22;4.63;;;2.10;;
13872;SDS011;7006;51.494;11.964;2022-09-27T00:20:48;3.80;;;2.50;;
13872;SDS011;7006;51.494;11.964;2022-09-27T00:23:14;5.20;;;2.40;;
13872;SDS011;7006;51.494;11.964;2022-09-27T00:25:41;4.50;;;2.47;;
13872;SDS011;7006;51.494;11.964;2022-09-27T00:28:07;2.63;;;2.27;;
13872;SDS011;7006;51.494;11.964;2022-09-27T00:30:33;4.20;;;2.20;;
13872;SDS011;7006;51.494;11.964;2022-09-27T00:33:01;2.60;;;1.90;;
13872;SDS011;7006;51.494;11.964;2022-09-27T00:35:27;4.37;;;2.10;;
13872;SDS011;7006;51.494;11.964;2022-09-27T00:37:54;2.90;;;1.87;;
13872;SDS011;7006;51.494;11.964;2022-09-27T00:40:20;2.90;;;2.20;;
13872;SDS011;7006;51.494;11.964;2022-09-27T00:42:48;3.23;;;2.00;;
13872;SDS011;7006;51.494;11.964;2022-09-27T00:45:15;2.90;;;2.00;;
13872;SDS011;7006;51.494;11.964;2022-09-27T00:47:42;3.10;;;2.10;;
13872;SDS011;7006;51.494;11.964;2022-09-27T00:50:17;3.63;;;2.50;;
13872;SDS011;7006;51.494;11.964;2022-09-27T00:52:47;3.00;;;2.30;;
13872;SDS011;7006;51.494;11.964;2022-09-27T00:55:15;3.00;;;2.10;;
13872;SDS011;7006;51.494;11.964;2022-09-27T00:57:43;3.27;;;2.20;;
13872;SDS011;7006;51.494;11.964;2022-09-27T01:00:11;4.37;;;2.13;;
13872;SDS011;7006;51.494;11.964;2022-09-27T01:02:39;3.90;;;2.30;;
13872;SDS011;7006;51.494;11.964;2022-09-27T01:05:06;3.10;;;2.30;;
13872;SDS011;7006;51.494;11.964;2022-09-27T01:07:35;2.73;;;1.97;;
13872;SDS011;7006;51.494;11.964;2022-09-27T01:10:02;3.33;;;2.00;;
13872;SDS011;7006;51.494;11.964;2022-09-27T01:12:30;2.77;;;1.80;;
13872;SDS011;7006;51.494;11.964;2022-09-27T01:15:02;2.80;;;2.00;;
13872;SDS011;7006;51.494;11.964;2022-09-27T01:17:36;4.90;;;2.13;;
13872;SDS011;7006;51.494;11.964;2022-09-27T01:20:15;3.30;;;2.10;;
13872;SDS011;7006;51.494;11.964;2022-09-27T01:22:47;2.67;;;2.00;;
13872;SDS011;7006;51.494;11.964;2022-09-27T01:25:22;3.20;;;1.70;;
13872;SDS011;7006;51.494;11.964;2022-09-27T01:30:46;4.13;;;2.57;;
13872;SDS011;7006;51.494;11.964;2022-09-27T01:33:17;3.90;;;1.80;;
13872;SDS011;7006;51.494;11.964;2022-09-27T01:35:49;2.87;;;1.80;;
13872;SDS011;7006;51.494;11.964;2022-09-27T01:38:22;2.30;;;1.73;;
13872;SDS011;7006;51.494;11.964;2022-09-27T01:40:51;2.27;;;1.77;;
13872;SDS011;7006;51.494;11.964;2022-09-27T01:43:20;2.57;;;1.87;;
13872;SDS011;7006;51.494;11.964;2022-09-27T01:45:50;2.77;;;1.60;;
13872;SDS011;7006;51.494;11.964;2022-09-27T01:48:19;3.13;;;1.80;;
13872;SDS011;7006;51.494;11.964;2022-09-27T01:50:47;1.97;;;1.43;;
13872;SDS011;7006;51.494;11.964;2022-09-27T01:53:16;4.80;;;2.47;;
13872;SDS011;7006;51.494;11.964;2022-09-27T01:55:44;2.70;;;1.53;;
13872;SDS011;7006;51.494;11.964;2022-09-27T01:58:13;2.20;;;1.60;;
13872;SDS011;7006;51.494;11.964;2022-09-27T02:00:40;2.23;;;1.53;;
13872;SDS011;7006;51.494;11.964;2022-09-27T02:03:10;2.00;;;1.20;;
13872;SDS011;7006;51.494;11.964;2022-09-27T02:05:39;2.07;;;1.37;;
13872;SDS011;7006;51.494;11.964;2022-09-27T02:08:09;2.33;;;1.40;;
13872;SDS011;7006;51.494;11.964;2022-09-27T02:10:38;2.53;;;1.43;;
13872;SDS011;7006;51.494;11.964;2022-09-27T02:13:06;2.10;;;1.10;;
13872;SDS011;7006;51.494;11.964;2022-09-27T02:15:38;1.97;;;1.40;;
13872;SDS011;7006;51.494;11.964;2022-09-27T02:18:09;2.63;;;1.40;;
13872;SDS011;7006;51.494;11.964;2022-09-27T02:20:40;2.90;;;1.40;;
13872;SDS011;7006;51.494;11.964;2022-09-27T02:23:21;1.80;;;1.20;;
13872;SDS011;7006;51.494;11.964;2022-09-27T02:25:49;1.70;;;1.00;;
13872;SDS011;7006;51.494;11.964;2022-09-27T02:28:21;2.33;;;1.10;;
13872;SDS011;7006;51.494;11.964;2022-09-27T02:30:48;1.70;;;0.97;;
13872;SDS011;7006;51.494;11.964;2022-09-27T02:33:16;2.30;;;1.20;;
13872;SDS011;7006;51.494;11.964;2022-09-27T02:35:43;1.70;;;1.00;;
13872;SDS011;7006;51.494;11.964;2022-09-27T02:38:10;2.53;;;1.00;;
13872;SDS011;7006;51.494;11.964;2022-09-27T02:40:41;1.60;;;1.00;;
13872;SDS011;7006;51.494;11.964;2022-09-27T02:43:08;1.93;;;1.20;;
13872;SDS011;7006;51.494;11.964;2022-09-27T02:45:35;2.93;;;1.27;;
13872;SDS011;7006;51.494;11.964;2022-09-27T02:48:08;1.90;;;1.13;;
13872;SDS011;7006;51.494;11.964;2022-09-27T02:50:43;1.80;;;1.10;;
13872;SDS011;7006;51.494;11.964;2022-09-27T02:53:14;1.70;;;1.00;;
13872;SDS011;7006;51.494;11.964;2022-09-27T02:55:48;3.30;;;1.20;;
13872;SDS011;7006;51.494;11.964;2022-09-27T02:58:20;2.00;;;1.13;;
13872;SDS011;7006;51.494;11.964;2022-09-27T03:00:50;1.60;;;1.10;;
13872;SDS011;7006;51.494;11.964;2022-09-27T03:03:19;2.93;;;1.53;;
13872;SDS011;7006;51.494;11.964;2022-09-27T03:05:48;2.20;;;1.30;;
13872;SDS011;7006;51.494;11.964;2022-09-27T03:08:16;2.20;;;1.20;;
13872;SDS011;7006;51.494;11.964;2022-09-27T03:10:44;4.00;;;1.47;;
13872;SDS011;7006;51.494;11.964;2022-09-27T03:13:10;2.23;;;1.30;;
13872;SDS011;7006;51.494;11.964;2022-09-27T03:15:37;1.83;;;1.17;;
13872;SDS011;7006;51.494;11.964;2022-09-27T03:18:03;2.10;;;1.20;;
13872;SDS011;7006;51.494;11.964;2022-09-27T03:20:30;1.80;;;1.23;;
13872;SDS011;7006;51.494;11.964;2022-09-27T03:22:57;2.17;;;1.33;;
13872;SDS011;7006;51.494;11.964;2022-09-27T03:25:24;1.93;;;1.27;;
13872;SDS011;7006;51.494;11.964;2022-09-27T03:27:50;2.60;;;1.70;;
13872;SDS011;7006;51.494;11.964;2022-09-27T03:30:17;2.03;;;1.13;;
13872;SDS011;7006;51.494;11.964;2022-09-27T03:32:43;2.03;;;1.40;;
13872;SDS011;7006;51.494;11.964;2022-09-27T03:35:10;3.33;;;1.40;;
13872;SDS011;7006;51.494;11.964;2022-09-27T03:37:36;2.00;;;1.30;;
13872;SDS011;7006;51.494;11.964;2022-09-27T03:40:04;1.77;;;1.30;;
13872;SDS011;7006;51.494;11.964;2022-09-27T03:42:31;2.70;;;1.47;;
13872;SDS011;7006;51.494;11.964;2022-09-27T03:44:57;3.93;;;1.50;;
13872;SDS011;7006;51.494;11.964;2022-09-27T03:47:23;2.00;;;1.30;;
13872;SDS011;7006;51.494;11.964;2022-09-27T03:49:50;2.00;;;1.40;;
13872;SDS011;7006;51.494;11.964;2022-09-27T03:52:16;3.20;;;1.23;;
13872;SDS011;7006;51.494;11.964;2022-09-27T03:54:43;2.20;;;1.30;;
13872;SDS011;7006;51.494;11.964;2022-09-27T03:57:11;2.30;;;1.50;;
13872;SDS011;7006;51.494;11.964;2022-09-27T03:59:37;2.13;;;1.30;;
13872;SDS011;7006;51.494;11.964;2022-09-27T04:02:03;2.40;;;1.40;;
13872;SDS011;7006;51.494;11.964;2022-09-27T04:04:30;2.10;;;1.20;;
13872;SDS011;7006;51.494;11.964;2022-09-27T04:06:56;1.90;;;1.27;;
13872;SDS011;7006;51.494;11.964;2022-09-27T04:09:23;2.70;;;1.50;;
13872;SDS011;7006;51.494;11.964;2022-09-27T04:11:49;2.33;;;1.60;;
13872;SDS011;7006;51.494;11.964;2022-09-27T04:14:17;1.77;;;1.30;;
13872;SDS011;7006;51.494;11.964;2022-09-27T04:16:43;2.10;;;1.30;;
13872;SDS011;7006;51.494;11.964;2022-09-27T04:19:10;2.43;;;1.37;;
13872;SDS011;7006;51.494;11.964;2022-09-27T04:21:36;2.23;;;1.20;;
13872;SDS011;7006;51.494;11.964;2022-09-27T04:24:02;2.57;;;1.50;;
13872;SDS011;7006;51.494;11.964;2022-09-27T04:26:30;2.40;;;1.60;;
13872;SDS011;7006;51.494;11.964;2022-09-27T04:28:57;2.47;;;1.47;;
13872;SDS011;7006;51.494;11.964;2022-09-27T04:31:24;2.77;;;1.37;;
13872;SDS011;7006;51.494;11.964;2022-09-27T04:33:51;2.00;;;1.60;;
13872;SDS011;7006;51.494;11.964;2022-09-27T04:36:18;2.30;;;1.70;;
13872;SDS011;7006;51.494;11.964;2022-09-27T04:38:50;2.27;;;1.60;;
13872;SDS011;7006;51.494;11.964;2022-09-27T04:41:17;3.30;;;1.80;;
13872;SDS011;7006;51.494;11.964;2022-09-27T04:43:45;2.10;;;1.50;;
13872;SDS011;7006;51.494;11.964;2022-09-27T04:46:12;3.60;;;1.87;;
13872;SDS011;7006;51.494;11.964;2022-09-27T04:48:40;3.60;;;1.37;;
13872;SDS011;7006;51.494;11.964;2022-09-27T04:51:07;2.70;;;1.50;;
13872;SDS011;7006;51.494;11.964;2022-09-27T04:53:34;2.40;;;1.50;;
13872;SDS011;7006;51.494;11.964;2022-09-27T04:56:01;1.80;;;1.33;;
13872;SDS011;7006;51.494;11.964;2022-09-27T04:58:30;1.93;;;1.40;;
13872;SDS011;7006;51.494;11.964;2022-09-27T05:00:57;1.97;;;1.20;;
13872;SDS011;7006;51.494;11.964;2022-09-27T05:03:24;1.90;;;1.20;;
13872;SDS011;7006;51.494;11.964;2022-09-27T05:05:52;5.07;;;1.27;;
13872;SDS011;7006;51.494;11.964;2022-09-27T05:08:18;2.63;;;1.60;;
13872;SDS011;7006;51.494;11.964;2022-09-27T05:10:45;2.13;;;1.30;;
13872;SDS011;7006;51.494;11.964;2022-09-27T05:13:12;2.73;;;1.20;;
13872;SDS011;7006;51.494;11.964;2022-09-27T05:15:38;5.23;;;1.63;;
13872;SDS011;7006;51.494;11.964;2022-09-27T05:18:05;4.00;;;1.63;;
13872;SDS011;7006;51.494;11.964;2022-09-27T05:20:32;2.30;;;1.70;;
13872;SDS011;7006;51.494;11.964;2022-09-27T05:23:00;3.07;;;1.63;;
13872;SDS011;7006;51.494;11.964;2022-09-27T05:25:27;2.93;;;1.67;;
13872;SDS011;7006;51.494;11.964;2022-09-27T05:27:55;2.43;;;1.30;;
13872;SDS011;7006;51.494;11.964;2022-09-27T05:30:22;2.40;;;1.70;;
13872;SDS011;7006;51.494;11.964;2022-09-27T05:32:48;2.70;;;1.50;;
13872;SDS011;7006;51.494;11.964;2022-09-27T05:35:14;2.27;;;1.60;;
13872;SDS011;7006;51.494;11.964;2022-09-27T05:37:41;2.30;;;1.57;;
13872;SDS011;7006;51.494;11.964;2022-09-27T05:40:09;2.80;;;1.83;;
13872;SDS011;7006;51.494;11.964;2022-09-27T05:42:37;5.90;;;1.80;;
13872;SDS011;7006;51.494;11.964;2022-09-27T05:45:04;4.37;;;1.70;;
13872;SDS011;7006;51.494;11.964;2022-09-27T05:47:31;3.37;;;1.97;;
13872;SDS011;7006;51.494;11.964;2022-09-27T05:49:58;3.83;;;2.30;;
13872;SDS011;7006;51.494;11.964;2022-09-27T05:52:25;4.03;;;2.10;;
13872;SDS011;7006;51.494;11.964;2022-09-27T05:54:51;4.17;;;2.30;;
13872;SDS011;7006;51.494;11.964;2022-09-27T05:57:19;4.27;;;2.20;;
13872;SDS011;7006;51.494;11.964;2022-09-27T05:59:45;4.00;;;2.57;;
13872;SDS011;7006;51.494;11.964;2022-09-27T06:02:12;3.10;;;2.23;;
13872;SDS011;7006;51.494;11.964;2022-09-27T06:04:39;2.77;;;2.47;;
13872;SDS011;7006;51.494;11.964;2022-09-27T06:07:05;3.63;;;2.00;;
13872;SDS011;7006;51.494;11.964;2022-09-27T06:09:31;3.92;;;2.50;;
13872;SDS011;7006;51.494;11.964;2022-09-27T06:11:58;5.20;;;1.73;;
13872;SDS011;7006;51.494;11.964;2022-09-27T06:14:25;2.23;;;1.40;;
13872;SDS011;7006;51.494;11.964;2022-09-27T06:16:52;3.80;;;2.00;;
13872;SDS011;7006;51.494;11.964;2022-09-27T06:19:19;6.40;;;2.30;;
13872;SDS011;7006;51.494;11.964;2022-09-27T06:21:47;2.67;;;1.37;;
13872;SDS011;7006;51.494;11.964;2022-09-27T06:24:14;1.90;;;1.17;;
13872;SDS011;7006;51.494;11.964;2022-09-27T06:26:40;1.90;;;1.27;;
13872;SDS011;7006;51.494;11.964;2022-09-27T06:29:06;3.23;;;1.50;;
13872;SDS011;7006;51.494;11.964;2022-09-27T06:31:34;3.37;;;1.30;;
13872;SDS011;7006;51.494;11.964;2022-09-27T06:34:01;2.90;;;1.67;;
13872;SDS011;7006;51.494;11.964;2022-09-27T06:36:27;1.80;;;0.97;;
13872;SDS011;7006;51.494;11.964;2022-09-27T06:38:53;1.53;;;1.00;;
13872;SDS011;7006;51.494;11.964;2022-09-27T06:41:20;1.87;;;0.87;;
13872;SDS011;7006;51.494;11.964;2022-09-27T06:43:46;1.43;;;0.83;;
13872;SDS011;7006;51.494;11.964;2022-09-27T06:46:13;1.60;;;0.90;;
13872;SDS011;7006;51.494;11.964;2022-09-27T06:48:41;2.10;;;1.30;;
13872;SDS011;7006;51.494;11.964;2022-09-27T06:51:07;1.80;;;0.90;;
13872;SDS011;7006;51.494;11.964;2022-09-27T06:53:34;1.90;;;1.10;;
13872;SDS011;7006;51.494;11.964;2022-09-27T06:56:00;1.97;;;1.10;;
13872;SDS011;7006;51.494;11.964;2022-09-27T06:58:27;1.70;;;1.10;;
13872;SDS011;7006;51.494;11.964;2022-09-27T07:01:11;2.50;;;0.90;;
13872;SDS011;7006;51.494;11.964;2022-09-27T07:03:38;3.00;;;1.53;;
13872;SDS011;7006;51.494;11.964;2022-09-27T07:06:16;3.73;;;1.17;;
13872;SDS011;7006;51.494;11.964;2022-09-27T07:08:44;2.10;;;1.20;;
13872;SDS011;7006;51.494;11.964;2022-09-27T07:11:10;2.77;;;1.50;;
13872;SDS011;7006;51.494;11.964;2022-09-27T07:13:37;4.93;;;1.13;;
13872;SDS011;7006;51.494;11.964;2022-09-27T07:16:06;2.30;;;1.40;;
13872;SDS011;7006;51.494;11.964;2022-09-27T07:18:33;2.40;;;1.20;;
13872;SDS011;7006;51.494;11.964;2022-09-27T07:20:59;1.80;;;1.10;;
13872;SDS011;7006;51.494;11.964;2022-09-27T07:23:27;2.77;;;1.20;;
13872;SDS011;7006;51.494;11.964;2022-09-27T07:25:54;1.70;;;0.90;;
13872;SDS011;7006;51.494;11.964;2022-09-27T07:28:20;2.83;;;1.30;;
13872;SDS011;7006;51.494;11.964;2022-09-27T07:30:46;2.03;;;1.20;;
13872;SDS011;7006;51.494;11.964;2022-09-27T07:33:13;2.20;;;1.00;;
13872;SDS011;7006;51.494;11.964;2022-09-27T07:35:39;4.37;;;1.17;;
13872;SDS011;7006;51.494;11.964;2022-09-27T07:38:08;1.67;;;1.30;;
13872;SDS011;7006;51.494;11.964;2022-09-27T07:40:38;2.47;;;1.30;;
13872;SDS011;7006;51.494;11.964;2022-09-27T07:43:05;2.43;;;1.37;;
13872;SDS011;7006;51.494;11.964;2022-09-27T07:45:32;1.77;;;0.80;;
13872;SDS011;7006;51.494;11.964;2022-09-27T07:47:58;2.20;;;1.10;;
13872;SDS011;7006;51.494;11.964;2022-09-27T07:50:25;2.70;;;1.03;;
13872;SDS011;7006;51.494;11.964;2022-09-27T07:52:52;1.77;;;1.20;;
13872;SDS011;7006;51.494;11.964;2022-09-27T07:55:19;4.27;;;1.17;;
13872;SDS011;7006;51.494;11.964;2022-09-27T07:57:47;1.70;;;1.03;;
13872;SDS011;7006;51.494;11.964;2022-09-27T08:00:14;1.63;;;1.03;;
13872;SDS011;7006;51.494;11.964;2022-09-27T08:02:40;2.10;;;1.20;;
13872;SDS011;7006;51.494;11.964;2022-09-27T08:05:07;2.43;;;1.10;;
13872;SDS011;7006;51.494;11.964;2022-09-27T08:07:34;2.93;;;1.33;;
13872;SDS011;7006;51.494;11.964;2022-09-27T08:10:00;1.60;;;0.90;;
13872;SDS011;7006;51.494;11.964;2022-09-27T08:12:26;2.77;;;1.40;;
13872;SDS011;7006;51.494;11.964;2022-09-27T08:14:54;2.87;;;1.00;;
13872;SDS011;7006;51.494;11.964;2022-09-27T08:17:25;2.07;;;0.87;;
13872;SDS011;7006;51.494;11.964;2022-09-27T08:19:51;2.20;;;1.03;;
13872;SDS011;7006;51.494;11.964;2022-09-27T08:22:18;2.87;;;1.00;;
13872;SDS011;7006;51.494;11.964;2022-09-27T08:24:45;2.20;;;1.40;;
13872;SDS011;7006;51.494;11.964;2022-09-27T08:27:12;3.90;;;1.00;;
13872;SDS011;7006;51.494;11.964;2022-09-27T08:29:38;2.33;;;1.03;;
13872;SDS011;7006;51.494;11.964;2022-09-27T08:32:07;2.90;;;1.00;;
13872;SDS011;7006;51.494;11.964;2022-09-27T08:34:33;1.40;;;0.67;;
13872;SDS011;7006;51.494;11.964;2022-09-27T08:37:00;1.73;;;0.80;;
13872;SDS011;7006;51.494;11.964;2022-09-27T08:39:26;2.10;;;0.90;;
13872;SDS011;7006;51.494;11.964;2022-09-27T08:41:53;2.03;;;0.90;;
13872;SDS011;7006;51.494;11.964;2022-09-27T08:44:22;2.00;;;0.80;;
13872;SDS011;7006;51.494;11.964;2022-09-27T08:46:52;3.20;;;0.90;;
13872;SDS011;7006;51.494;11.964;2022-09-27T08:49:28;1.90;;;0.70;;
13872;SDS011;7006;51.494;11.964;2022-09-27T08:51:57;2.50;;;1.30;;
13872;SDS011;7006;51.494;11.964;2022-09-27T08:54:25;1.83;;;0.70;;
13872;SDS011;7006;51.494;11.964;2022-09-27T08:56:53;1.50;;;0.70;;
13872;SDS011;7006;51.494;11.964;2022-09-27T08:59:26;2.23;;;0.60;;
13872;SDS011;7006;51.494;11.964;2022-09-27T09:01:53;2.13;;;0.70;;
13872;SDS011;7006;51.494;11.964;2022-09-27T09:04:22;1.43;;;0.50;;
13872;SDS011;7006;51.494;11.964;2022-09-27T09:06:56;1.80;;;0.70;;
13872;SDS011;7006;51.494;11.964;2022-09-27T09:09:26;3.00;;;0.87;;
13872;SDS011;7006;51.494;11.964;2022-09-27T09:11:57;2.53;;;1.10;;
13872;SDS011;7006;51.494;11.964;2022-09-27T09:14:46;1.83;;;0.60;;
13872;SDS011;7006;51.494;11.964;2022-09-27T09:17:18;2.27;;;0.50;;
13872;SDS011;7006;51.494;11.964;2022-09-27T09:19:52;1.60;;;0.50;;
13872;SDS011;7006;51.494;11.964;2022-09-27T09:22:28;1.40;;;0.50;;
13872;SDS011;7006;51.494;11.964;2022-09-27T09:25:01;1.10;;;0.47;;
13872;SDS011;7006;51.494;11.964;2022-09-27T09:27:32;5.03;;;0.70;;
13872;SDS011;7006;51.494;11.964;2022-09-27T09:30:02;1.20;;;0.50;;
13872;SDS011;7006;51.494;11.964;2022-09-27T09:32:33;1.67;;;0.50;;
13872;SDS011;7006;51.494;11.964;2022-09-27T09:35:05;1.93;;;0.60;;
13872;SDS011;7006;51.494;11.964;2022-09-27T09:37:35;1.50;;;0.57;;
13872;SDS011;7006;51.494;11.964;2022-09-27T09:40:04;3.20;;;1.43;;
13872;SDS011;7006;51.494;11.964;2022-09-27T09:42:33;1.50;;;0.60;;
13872;SDS011;7006;51.494;11.964;2022-09-27T09:45:01;2.30;;;0.70;;
13872;SDS011;7006;51.494;11.964;2022-09-27T09:47:29;2.17;;;1.10;;
13872;SDS011;7006;51.494;11.964;2022-09-27T09:49:57;1.17;;;0.70;;
13872;SDS011;7006;51.494;11.964;2022-09-27T09:52:26;2.00;;;0.80;;
13872;SDS011;7006;51.494;11.964;2022-09-27T09:54:57;1.70;;;0.80;;
13872;SDS011;7006;51.494;11.964;2022-09-27T09:57:27;2.10;;;0.97;;
13872;SDS011;7006;51.494;11.964;2022-09-27T09:59:56;3.77;;;1.90;;
13872;SDS011;7006;51.494;11.964;2022-09-27T10:02:25;1.90;;;0.97;;
13872;SDS011;7006;51.494;11.964;2022-09-27T10:04:53;2.90;;;1.17;;
13872;SDS011;7006;51.494;11.964;2022-09-27T10:07:20;1.50;;;0.73;;
13872;SDS011;7006;51.494;11.964;2022-09-27T10:09:47;2.20;;;1.17;;
13872;SDS011;7006;51.494;11.964;2022-09-27T10:12:15;2.03;;;1.07;;
13872;SDS011;7006;51.494;11.964;2022-09-27T10:14:42;1.57;;;0.80;;
13872;SDS011;7006;51.494;11.964;2022-09-27T10:17:10;2.10;;;1.03;;
13872;SDS011;7006;51.494;11.964;2022-09-27T10:19:38;2.50;;;0.90;;
13872;SDS011;7006;51.494;11.964;2022-09-27T10:22:10;1.57;;;1.00;;
13872;SDS011;7006;51.494;11.964;2022-09-27T10:24:41;2.37;;;0.83;;
13872;SDS011;7006;51.494;11.964;2022-09-27T10:27:18;2.93;;;1.53;;
13872;SDS011;7006;51.494;11.964;2022-09-27T10:29:45;1.80;;;0.93;;
13872;SDS011;7006;51.494;11.964;2022-09-27T10:32:18;2.07;;;0.70;;
13872;SDS011;7006;51.494;11.964;2022-09-27T10:34:46;2.20;;;0.80;;
13872;SDS011;7006;51.494;11.964;2022-09-27T10:37:13;1.83;;;0.83;;
13872;SDS011;7006;51.494;11.964;2022-09-27T10:39:41;1.50;;;0.90;;
13872;SDS011;7006;51.494;11.964;2022-09-27T10:42:19;1.43;;;0.80;;
13872;SDS011;7006;51.494;11.964;2022-09-27T10:44:46;3.23;;;1.40;;
13872;SDS011;7006;51.494;11.964;2022-09-27T10:47:12;2.27;;;1.23;;
13872;SDS011;7006;51.494;11.964;2022-09-27T10:49:43;2.43;;;1.20;;
13872;SDS011;7006;51.494;11.964;2022-09-27T10:52:15;1.93;;;1.13;;
13872;SDS011;7006;51.494;11.964;2022-09-27T10:54:50;3.33;;;1.20;;
13872;SDS011;7006;51.494;11.964;2022-09-27T10:57:18;1.70;;;0.90;;
13872;SDS011;7006;51.494;11.964;2022-09-27T10:59:49;1.90;;;0.97;;
13872;SDS011;7006;51.494;11.964;2022-09-27T11:02:18;1.67;;;0.83;;
13872;SDS011;7006;51.494;11.964;2022-09-27T11:05:00;2.20;;;1.10;;
13872;SDS011;7006;51.494;11.964;2022-09-27T11:07:27;2.30;;;1.50;;
13872;SDS011;7006;51.494;11.964;2022-09-27T11:09:54;3.80;;;1.07;;
13872;SDS011;7006;51.494;11.964;2022-09-27T11:12:27;1.90;;;1.10;;
13872;SDS011;7006;51.494;11.964;2022-09-27T11:14:57;2.33;;;1.30;;
13872;SDS011;7006;51.494;11.964;2022-09-27T11:17:25;2.87;;;1.10;;
13872;SDS011;7006;51.494;11.964;2022-09-27T11:19:55;2.57;;;1.10;;
13872;SDS011;7006;51.494;11.964;2022-09-27T11:22:31;1.40;;;0.90;;
13872;SDS011;7006;51.494;11.964;2022-09-27T11:25:06;1.53;;;0.87;;
13872;SDS011;7006;51.494;11.964;2022-09-27T11:27:39;2.87;;;1.60;;
13872;SDS011;7006;51.494;11.964;2022-09-27T11:30:10;2.17;;;1.10;;
13872;SDS011;7006;51.494;11.964;2022-09-27T11:32:55;3.60;;;0.80;;
13872;SDS011;7006;51.494;11.964;2022-09-27T11:35:26;2.07;;;0.77;;
13872;SDS011;7006;51.494;11.964;2022-09-27T11:37:58;1.60;;;0.80;;
13872;SDS011;7006;51.494;11.964;2022-09-27T11:40:29;1.40;;;0.50;;
13872;SDS011;7006;51.494;11.964;2022-09-27T11:43:08;2.33;;;0.90;;
13872;SDS011;7006;51.494;11.964;2022-09-27T11:45:44;1.60;;;0.90;;
13872;SDS011;7006;51.494;11.964;2022-09-27T11:48:20;2.17;;;0.87;;
13872;SDS011;7006;51.494;11.964;2022-09-27T11:50:55;3.27;;;1.07;;
13872;SDS011;7006;51.494;11.964;2022-09-27T11:53:40;1.50;;;0.90;;
13872;SDS011;7006;51.494;11.964;2022-09-27T11:56:10;2.23;;;0.90;;
13872;SDS011;7006;51.494;11.964;2022-09-27T11:58:44;2.40;;;1.13;;
13872;SDS011;7006;51.494;11.964;2022-09-27T12:01:17;1.57;;;0.93;;
13872;SDS011;7006;51.494;11.964;2022-09-27T12:06:33;2.53;;;1.47;;
13872;SDS011;7006;51.494;11.964;2022-09-27T12:09:04;1.73;;;1.10;;
13872;SDS011;7006;51.494;11.964;2022-09-27T12:11:34;2.30;;;1.20;;
13872;SDS011;7006;51.494;11.964;2022-09-27T12:14:03;2.30;;;1.20;;
13872;SDS011;7006;51.494;11.964;2022-09-27T12:16:32;1.50;;;0.80;;
13872;SDS011;7006;51.494;11.964;2022-09-27T12:18:59;2.20;;;1.20;;
13872;SDS011;7006;51.494;11.964;2022-09-27T12:21:26;1.43;;;0.90;;
13872;SDS011;7006;51.494;11.964;2022-09-27T12:23:55;2.63;;;1.10;;
13872;SDS011;7006;51.494;11.964;2022-09-27T12:26:24;1.60;;;0.93;;
13872;SDS011;7006;51.494;11.964;2022-09-27T12:28:52;3.40;;;1.30;;
13872;SDS011;7006;51.494;11.964;2022-09-27T12:31:20;2.30;;;1.23;;
13872;SDS011;7006;51.494;11.964;2022-09-27T12:33:52;2.07;;;1.10;;
13872;SDS011;7006;51.494;11.964;2022-09-27T12:36:22;2.90;;;1.00;;
13872;SDS011;7006;51.494;11.964;2022-09-27T12:38:51;2.37;;;1.00;;
13872;SDS011;7006;51.494;11.964;2022-09-27T12:41:18;1.60;;;0.80;;
13872;SDS011;7006;51.494;11.964;2022-09-27T12:43:47;2.40;;;1.10;;
13872;SDS011;7006;51.494;11.964;2022-09-27T12:46:15;1.90;;;1.13;;
13872;SDS011;7006;51.494;11.964;2022-09-27T12:48:47;2.57;;;1.10;;
13872;SDS011;7006;51.494;11.964;2022-09-27T12:51:19;2.27;;;1.27;;
13872;SDS011;7006;51.494;11.964;2022-09-27T12:53:50;1.90;;;0.90;;
13872;SDS011;7006;51.494;11.964;2022-09-27T12:56:21;4.80;;;1.30;;
13872;SDS011;7006;51.494;11.964;2022-09-27T13:01:42;2.30;;;1.20;;
13872;SDS011;7006;51.494;11.964;2022-09-27T13:04:18;2.07;;;1.20;;
13872;SDS011;7006;51.494;11.964;2022-09-27T13:06:53;1.57;;;1.00;;
13872;SDS011;7006;51.494;11.964;2022-09-27T13:09:42;3.70;;;1.30;;
13872;SDS011;7006;51.494;11.964;2022-09-27T13:12:11;2.60;;;1.00;;
13872;SDS011;7006;51.494;11.964;2022-09-27T13:14:40;2.60;;;1.73;;
13872;SDS011;7006;51.494;11.964;2022-09-27T13:19:48;2.67;;;1.30;;
13872;SDS011;7006;51.494;11.964;2022-09-27T13:24:57;3.70;;;1.27;;
13872;SDS011;7006;51.494;11.964;2022-09-27T13:27:37;2.40;;;1.40;;
13872;SDS011;7006;51.494;11.964;2022-09-27T13:35:30;3.53;;;1.83;;
13872;SDS011;7006;51.494;11.964;2022-09-27T13:37:57;2.30;;;1.63;;
13872;SDS011;7006;51.494;11.964;2022-09-27T13:45:49;6.60;;;1.90;;
13872;SDS011;7006;51.494;11.964;2022-09-27T13:48:20;3.50;;;2.10;;
13872;SDS011;7006;51.494;11.964;2022-09-27T13:50:50;5.43;;;2.83;;
13872;SDS011;7006;51.494;11.964;2022-09-27T13:53:22;3.70;;;2.40;;
13872;SDS011;7006;51.494;11.964;2022-09-27T13:55:51;4.47;;;2.37;;
13872;SDS011;7006;51.494;11.964;2022-09-27T14:01:17;3.10;;;2.20;;
13872;SDS011;7006;51.494;11.964;2022-09-27T14:03:45;3.03;;;1.93;;
13872;SDS011;7006;51.494;11.964;2022-09-27T14:06:13;2.27;;;1.57;;
13872;SDS011;7006;51.494;11.964;2022-09-27T14:08:42;2.00;;;1.30;;
13872;SDS011;7006;51.494;11.964;2022-09-27T14:11:13;2.23;;;1.40;;
13872;SDS011;7006;51.494;11.964;2022-09-27T14:13:41;2.20;;;1.30;;
13872;SDS011;7006;51.494;11.964;2022-09-27T14:16:12;2.83;;;1.20;;
13872;SDS011;7006;51.494;11.964;2022-09-27T14:18:42;1.57;;;0.70;;
13872;SDS011;7006;51.494;11.964;2022-09-27T14:21:15;2.03;;;0.90;;
13872;SDS011;7006;51.494;11.964;2022-09-27T14:23:42;2.63;;;0.90;;
13872;SDS011;7006;51.494;11.964;2022-09-27T14:26:17;3.70;;;1.20;;
13872;SDS011;7006;51.494;11.964;2022-09-27T14:28:45;2.13;;;0.97;;
13872;SDS011;7006;51.494;11.964;2022-09-27T14:31:12;3.60;;;1.33;;
13872;SDS011;7006;51.494;11.964;2022-09-27T14:33:42;3.70;;;1.23;;
13872;SDS011;7006;51.494;11.964;2022-09-27T14:36:22;3.00;;;1.00;;
13872;SDS011;7006;51.494;11.964;2022-09-27T14:39:11;4.90;;;1.20;;
13872;SDS011;7006;51.494;11.964;2022-09-27T14:41:39;2.83;;;0.83;;
13872;SDS011;7006;51.494;11.964;2022-09-27T14:44:09;2.57;;;1.00;;
13872;SDS011;7006;51.494;11.964;2022-09-27T14:46:37;2.23;;;1.20;;
13872;SDS011;7006;51.494;11.964;2022-09-27T14:49:15;4.23;;;1.20;;
13872;SDS011;7006;51.494;11.964;2022-09-27T14:51:43;1.90;;;1.17;;
13872;SDS011;7006;51.494;11.964;2022-09-27T14:54:21;2.00;;;1.20;;
13872;SDS011;7006;51.494;11.964;2022-09-27T14:56:49;2.37;;;1.30;;
13872;SDS011;7006;51.494;11.964;2022-09-27T14:59:16;2.85;;;1.40;;
13872;SDS011;7006;51.494;11.964;2022-09-27T15:01:47;2.50;;;1.30;;
13872;SDS011;7006;51.494;11.964;2022-09-27T15:04:15;3.57;;;1.40;;
13872;SDS011;7006;51.494;11.964;2022-09-27T15:06:42;3.53;;;1.10;;
13872;SDS011;7006;51.494;11.964;2022-09-27T15:09:09;2.43;;;0.93;;
13872;SDS011;7006;51.494;11.964;2022-09-27T15:11:38;3.87;;;1.83;;
13872;SDS011;7006;51.494;11.964;2022-09-27T15:14:05;2.50;;;1.10;;
13872;SDS011;7006;51.494;11.964;2022-09-27T15:16:32;1.80;;;1.00;;
13872;SDS011;7006;51.494;11.964;2022-09-27T15:18:59;2.10;;;1.20;;
13872;SDS011;7006;51.494;11.964;2022-09-27T15:21:30;2.17;;;1.23;;
13872;SDS011;7006;51.494;11.964;2022-09-27T15:23:56;4.00;;;1.20;;
13872;SDS011;7006;51.494;11.964;2022-09-27T15:26:24;5.47;;;1.57;;